createdAt,value
2024-05-09T00:01:50.250Z,4.77
2024-05-09T00:04:37.934Z,4.80
2024-05-09T00:07:25.615Z,5.00
2024-05-09T00:10:22.296Z,4.60
2024-05-09T00:13:16.693Z,4.67
2024-05-09T00:16:04.511Z,5.10
2024-05-09T00:18:52.332Z,5.10
2024-05-09T00:21:45.990Z,5.10
2024-05-09T00:24:33.590Z,4.97
2024-05-09T00:27:21.257Z,4.63
2024-05-09T00:30:14.356Z,4.90
2024-05-09T00:33:06.805Z,4.50
2024-05-09T00:35:55.647Z,4.73
2024-05-09T00:38:43.323Z,4.70
2024-05-09T00:41:31.028Z,4.53
2024-05-09T00:44:18.761Z,4.70
2024-05-09T00:47:06.747Z,4.60
2024-05-09T00:49:54.605Z,4.80
2024-05-09T00:52:42.565Z,4.10
2024-05-09T00:55:30.356Z,4.73
2024-05-09T00:58:23.145Z,4.53
2024-05-09T01:01:11.206Z,4.33
2024-05-09T01:03:59.841Z,4.97
2024-05-09T01:06:48.414Z,4.23
2024-05-09T01:09:36.032Z,4.20
2024-05-09T01:12:24.943Z,4.17
2024-05-09T01:15:12.680Z,4.20
2024-05-09T01:18:11.026Z,4.07
2024-05-09T01:20:59.647Z,4.13
2024-05-09T01:23:47.615Z,4.20
2024-05-09T01:26:35.275Z,4.10
2024-05-09T01:29:23.043Z,3.90
2024-05-09T01:32:10.855Z,4.27
2024-05-09T01:34:58.559Z,4.20
2024-05-09T01:37:46.310Z,3.80
2024-05-09T01:40:38.584Z,4.40
2024-05-09T01:43:27.790Z,4.20
2024-05-09T01:46:16.177Z,4.20
2024-05-09T01:49:04.652Z,4.03
2024-05-09T01:51:52.338Z,3.53
2024-05-09T01:54:40.009Z,4.20
2024-05-09T01:57:27.616Z,3.77
2024-05-09T02:00:22.264Z,3.87
2024-05-09T02:03:18.114Z,4.07
2024-05-09T02:06:06.476Z,4.10
2024-05-09T02:08:54.296Z,4.13
2024-05-09T02:11:48.261Z,4.30
2024-05-09T02:14:36.043Z,4.13
2024-05-09T02:17:23.799Z,4.27
2024-05-09T02:20:18.793Z,3.80
2024-05-09T02:23:14.900Z,4.03
2024-05-09T02:26:02.635Z,3.93
2024-05-09T02:28:50.311Z,3.90
2024-05-09T02:31:37.962Z,4.20
2024-05-09T02:34:25.690Z,4.10
2024-05-09T02:37:13.418Z,4.10
2024-05-09T02:40:01.055Z,4.20
2024-05-09T02:42:48.684Z,4.13
2024-05-09T02:45:36.367Z,4.13
2024-05-09T02:48:24.267Z,3.93
2024-05-09T02:51:11.981Z,4.40
2024-05-09T02:53:59.687Z,4.30
2024-05-09T02:56:47.299Z,4.40
2024-05-09T02:59:35.339Z,4.40
2024-05-09T03:02:23.046Z,4.20
2024-05-09T03:05:11.507Z,4.13
2024-05-09T03:07:59.454Z,4.53
2024-05-09T03:10:47.136Z,4.37
2024-05-09T03:13:34.839Z,4.97
2024-05-09T03:16:22.440Z,4.20
2024-05-09T03:19:10.604Z,4.60
2024-05-09T03:21:59.274Z,4.20
2024-05-09T03:24:46.862Z,4.10
2024-05-09T03:27:34.487Z,4.17
2024-05-09T03:30:31.109Z,3.73
2024-05-09T03:33:27.425Z,4.50
2024-05-09T03:36:15.096Z,4.57
2024-05-09T03:39:02.744Z,4.17
2024-05-09T03:41:50.373Z,4.13
2024-05-09T03:44:39.082Z,4.80
2024-05-09T03:47:26.859Z,4.37
2024-05-09T03:50:22.024Z,4.20
2024-05-09T03:53:14.768Z,4.10
2024-05-09T03:56:03.805Z,4.07
2024-05-09T03:58:51.492Z,4.47
2024-05-09T04:01:39.187Z,4.40
2024-05-09T04:04:26.957Z,3.70
2024-05-09T04:07:14.639Z,4.27
2024-05-09T04:10:02.297Z,4.57
2024-05-09T04:12:53.254Z,4.10
2024-05-09T04:15:40.992Z,3.93
2024-05-09T04:18:28.815Z,4.40
2024-05-09T04:21:16.536Z,4.10
2024-05-09T04:24:04.230Z,4.30
2024-05-09T04:26:51.854Z,3.87
2024-05-09T04:29:40.873Z,4.37
2024-05-09T04:32:28.865Z,4.07
2024-05-09T04:35:18.596Z,3.97
2024-05-09T04:38:06.623Z,4.30
2024-05-09T04:40:54.450Z,3.60
2024-05-09T04:43:42.360Z,4.33
2024-05-09T04:46:29.949Z,3.83
2024-05-09T04:49:17.763Z,4.17
2024-05-09T04:52:05.866Z,4.00
2024-05-09T04:54:56.914Z,4.07
2024-05-09T04:57:46.110Z,3.67
2024-05-09T05:00:37.219Z,4.07
2024-05-09T05:03:26.926Z,3.60
2024-05-09T05:06:14.700Z,3.97
2024-05-09T05:09:02.351Z,4.13
2024-05-09T05:11:50.036Z,3.70
2024-05-09T05:14:37.767Z,3.70
2024-05-09T05:17:25.561Z,3.50
2024-05-09T05:20:17.863Z,3.70
2024-05-09T05:23:12.232Z,3.27
2024-05-09T05:26:00.051Z,3.83
2024-05-09T05:28:47.925Z,4.10
2024-05-09T05:31:35.574Z,4.00
2024-05-09T05:34:23.187Z,3.97
2024-05-09T05:37:10.801Z,3.87
2024-05-09T05:39:58.483Z,3.77
2024-05-09T05:42:46.086Z,3.60
2024-05-09T05:45:33.770Z,3.47
2024-05-09T05:48:21.611Z,3.10
2024-05-09T05:51:09.377Z,3.87
2024-05-09T05:53:57.003Z,3.83
2024-05-09T05:56:44.709Z,3.10
2024-05-09T05:59:32.571Z,3.93
2024-05-09T06:02:20.467Z,3.70
2024-05-09T06:05:08.283Z,3.50
2024-05-09T06:07:57.610Z,3.40
2024-05-09T06:10:45.410Z,3.53
2024-05-09T06:13:33.081Z,3.60
2024-05-09T06:16:20.711Z,3.30
2024-05-09T06:19:08.410Z,3.57
2024-05-09T06:21:56.061Z,3.23
2024-05-09T06:24:43.785Z,3.23
2024-05-09T06:27:31.421Z,3.30
2024-05-09T06:30:26.278Z,3.57
2024-05-09T06:33:22.803Z,3.10
2024-05-09T06:36:10.570Z,2.80
2024-05-09T06:38:58.173Z,3.20
2024-05-09T06:41:45.796Z,3.30
2024-05-09T06:44:33.480Z,3.30
2024-05-09T06:47:21.232Z,2.93
2024-05-09T06:50:16.326Z,2.90
2024-05-09T06:53:10.905Z,3.23
2024-05-09T06:55:58.636Z,3.53
2024-05-09T06:58:46.266Z,3.47
2024-05-09T07:01:34.115Z,3.23
2024-05-09T07:04:22.040Z,2.90
2024-05-09T07:07:09.728Z,3.20
2024-05-09T07:09:57.585Z,3.00
2024-05-09T07:12:45.221Z,3.10
2024-05-09T07:15:32.896Z,3.10
2024-05-09T07:18:21.053Z,2.90
2024-05-09T07:21:09.230Z,3.23
2024-05-09T07:23:57.015Z,2.97
2024-05-09T07:26:44.689Z,3.10
2024-05-09T07:29:34.048Z,3.20
2024-05-09T07:32:23.305Z,3.03
2024-05-09T07:35:11.039Z,2.93
2024-05-09T07:37:58.828Z,3.00
2024-05-09T07:40:46.900Z,3.30
2024-05-09T07:43:34.679Z,2.93
2024-05-09T07:47:14.676Z,2.83
2024-05-09T07:53:30.106Z,2.90
2024-05-09T07:55:28.167Z,2.80
2024-05-09T07:58:15.984Z,2.83
2024-05-09T08:01:03.810Z,2.70
2024-05-09T08:03:51.770Z,2.77
2024-05-09T08:06:39.560Z,2.80
2024-05-09T08:09:27.266Z,2.53
2024-05-09T08:12:14.956Z,2.50
2024-05-09T08:15:02.709Z,2.70
2024-05-09T08:17:51.465Z,2.73
2024-05-09T08:20:40.333Z,2.90
2024-05-09T08:23:28.863Z,2.77
2024-05-09T08:26:16.674Z,2.70
2024-05-09T08:29:04.359Z,2.90
2024-05-09T08:31:55.977Z,2.40
2024-05-09T08:34:44.171Z,3.17
2024-05-09T08:37:36.693Z,2.63
2024-05-09T08:40:33.739Z,2.90
2024-05-09T08:43:25.335Z,3.03
2024-05-09T08:46:14.312Z,2.20
2024-05-09T08:49:04.151Z,2.40
2024-05-09T08:51:51.891Z,2.47
2024-05-09T08:54:39.628Z,2.80
2024-05-09T08:57:29.005Z,2.30
2024-05-09T09:03:09.437Z,2.50
2024-05-09T09:06:06.746Z,2.30
2024-05-09T09:08:55.031Z,2.20
2024-05-09T09:11:42.733Z,2.43
2024-05-09T09:14:30.343Z,2.60
2024-05-09T09:17:18.549Z,2.70
2024-05-09T09:20:11.300Z,2.67
2024-05-09T09:23:01.598Z,2.20
2024-05-09T09:25:49.213Z,2.30
2024-05-09T09:28:37.589Z,2.83
2024-05-09T09:31:25.313Z,2.67
2024-05-09T09:34:13.307Z,2.10
2024-05-09T09:37:09.186Z,2.60
2024-05-09T09:39:59.606Z,2.20
2024-05-09T09:42:49.958Z,2.70
2024-05-09T09:45:38.847Z,2.67
2024-05-09T09:48:26.869Z,2.47
2024-05-09T09:51:15.501Z,3.10
2024-05-09T09:54:06.342Z,2.60
2024-05-09T09:56:56.741Z,3.00
2024-05-09T09:59:47.144Z,2.60
2024-05-09T10:02:34.802Z,2.50
2024-05-09T10:05:23.563Z,2.83
2024-05-09T10:08:12.575Z,2.60
2024-05-09T10:11:04.635Z,2.50
2024-05-09T10:13:53.759Z,2.70
2024-05-09T10:16:45.064Z,2.50
2024-05-09T10:19:34.215Z,2.33
2024-05-09T10:22:28.726Z,2.23
2024-05-09T10:25:17.669Z,2.60
2024-05-09T10:28:05.703Z,2.80
2024-05-09T10:31:10.054Z,3.00
2024-05-09T10:33:57.982Z,2.37
2024-05-09T10:36:45.949Z,2.50
2024-05-09T10:39:39.302Z,2.60
2024-05-09T10:42:27.853Z,2.20
2024-05-09T10:45:16.953Z,2.30
2024-05-09T10:48:05.054Z,2.30
2024-05-09T10:50:52.994Z,2.23
2024-05-09T10:53:44.793Z,2.37
2024-05-09T10:56:32.394Z,1.80
2024-05-09T10:59:20.038Z,1.90
2024-05-09T11:02:08.000Z,2.40
2024-05-09T11:04:55.958Z,2.23
2024-05-09T11:07:43.734Z,2.10
2024-05-09T11:10:34.107Z,2.03
2024-05-09T11:13:36.133Z,2.27
2024-05-09T11:16:23.807Z,1.93
2024-05-09T11:19:14.737Z,1.90
2024-05-09T11:22:02.772Z,2.00
2024-05-09T11:24:50.580Z,2.03
2024-05-09T11:27:40.812Z,1.80
2024-05-09T11:30:32.030Z,1.83
2024-05-09T11:33:20.426Z,2.00
2024-05-09T11:36:09.570Z,2.13
2024-05-09T11:38:57.229Z,2.30
2024-05-09T11:41:44.908Z,2.30
2024-05-09T11:44:32.523Z,2.20
2024-05-09T11:47:21.631Z,1.80
2024-05-09T11:50:15.829Z,1.93
2024-05-09T11:53:06.832Z,2.00
2024-05-09T11:55:54.643Z,2.60
2024-05-09T11:58:42.261Z,2.10
2024-05-09T12:01:30.032Z,2.13
2024-05-09T12:04:18.136Z,2.30
2024-05-09T12:07:07.301Z,2.10
2024-05-09T12:09:56.162Z,2.20
2024-05-09T12:12:43.821Z,2.00
2024-05-09T12:15:32.155Z,2.20
2024-05-09T12:18:19.910Z,2.37
2024-05-09T12:21:07.548Z,2.23
2024-05-09T12:23:55.197Z,2.43
2024-05-09T12:26:42.816Z,2.20
2024-05-09T12:29:30.469Z,2.17
2024-05-09T12:32:18.116Z,2.33
2024-05-09T12:35:05.984Z,2.30
2024-05-09T12:37:53.668Z,1.80
2024-05-09T12:40:41.409Z,2.00
2024-05-09T12:43:29.226Z,1.90
2024-05-09T12:46:20.302Z,2.13
2024-05-09T12:49:08.165Z,2.10
2024-05-09T12:51:55.868Z,2.10
2024-05-09T12:54:43.579Z,2.00
2024-05-09T12:57:31.230Z,2.10
2024-05-09T13:00:24.083Z,1.93
2024-05-09T13:03:18.806Z,1.93
2024-05-09T13:06:06.461Z,1.80
2024-05-09T13:08:54.153Z,2.00
2024-05-09T13:11:42.329Z,2.20
2024-05-09T13:14:29.969Z,2.07
2024-05-09T13:17:17.632Z,2.23
2024-05-09T13:20:11.821Z,2.10
2024-05-09T13:23:07.690Z,2.00
2024-05-09T13:25:56.082Z,1.70
2024-05-09T13:28:43.755Z,1.87
2024-05-09T13:31:31.494Z,2.00
2024-05-09T13:34:19.289Z,1.80
2024-05-09T13:37:07.038Z,2.17
2024-05-09T13:39:54.784Z,2.17
2024-05-09T13:42:42.469Z,2.10
2024-05-09T13:45:30.225Z,2.20
2024-05-09T13:48:19.677Z,2.30
2024-05-09T13:51:07.511Z,2.17
2024-05-09T13:53:59.232Z,1.83
2024-05-09T13:56:46.879Z,2.10
2024-05-09T13:59:34.489Z,2.10
2024-05-09T14:02:22.342Z,2.00
2024-05-09T14:05:10.531Z,1.90
2024-05-09T14:07:58.663Z,1.70
2024-05-09T14:10:47.405Z,1.73
2024-05-09T14:13:35.230Z,1.90
2024-05-09T14:16:22.966Z,1.90
2024-05-09T14:19:10.777Z,2.30
2024-05-09T14:21:58.428Z,2.20
2024-05-09T14:24:46.067Z,1.77
2024-05-09T14:27:33.800Z,2.20
2024-05-09T14:30:30.445Z,1.80
2024-05-09T14:33:26.946Z,2.00
2024-05-09T14:36:14.772Z,2.17
2024-05-09T14:39:02.422Z,2.17
2024-05-09T14:41:49.998Z,1.70
2024-05-09T14:44:37.651Z,2.10
2024-05-09T14:47:25.462Z,2.13
2024-05-09T14:50:19.595Z,1.80
2024-05-09T14:53:15.216Z,1.70
2024-05-09T14:56:02.945Z,2.10
2024-05-09T14:58:50.535Z,1.73
2024-05-09T15:01:38.238Z,1.87
2024-05-09T15:04:26.903Z,2.10
2024-05-09T15:07:14.704Z,1.80
2024-05-09T15:10:03.603Z,2.10
2024-05-09T15:12:52.725Z,1.97
2024-05-09T15:15:40.523Z,3.00
2024-05-09T15:18:28.305Z,3.70
2024-05-09T15:21:16.018Z,2.70
2024-05-09T15:24:03.629Z,2.27
2024-05-09T15:26:51.305Z,2.40
2024-05-09T15:29:39.256Z,2.07
2024-05-09T15:32:29.505Z,2.00
2024-05-09T15:35:17.193Z,2.10
2024-05-09T15:38:05.080Z,2.10
2024-05-09T15:40:52.889Z,1.73
2024-05-09T15:43:40.771Z,1.80
2024-05-09T15:46:28.581Z,1.90
2024-05-09T15:49:16.475Z,1.70
2024-05-09T15:52:04.377Z,1.77
2024-05-09T15:54:52.054Z,1.80
2024-05-09T15:57:39.804Z,2.40
2024-05-09T16:00:36.482Z,2.20
2024-05-09T16:03:28.922Z,2.00
2024-05-09T16:06:16.741Z,2.10
2024-05-09T16:09:06.418Z,1.77
2024-05-09T16:11:54.028Z,2.00
2024-05-09T16:14:41.677Z,1.87
2024-05-09T16:17:29.473Z,2.30
2024-05-09T16:20:26.452Z,2.00
2024-05-09T16:23:22.106Z,1.87
2024-05-09T16:26:09.707Z,1.67
2024-05-09T16:28:57.455Z,1.80
2024-05-09T16:31:45.141Z,1.90
2024-05-09T16:34:32.845Z,2.00
2024-05-09T16:37:20.843Z,1.80
2024-05-09T16:40:21.408Z,1.70
2024-05-09T16:43:13.760Z,2.10
2024-05-09T16:46:03.784Z,1.73
2024-05-09T16:48:51.599Z,2.10
2024-05-09T16:51:39.292Z,1.70
2024-05-09T16:54:27.548Z,2.20
2024-05-09T16:57:15.192Z,2.10
2024-05-09T17:00:04.335Z,1.70
2024-05-09T17:02:54.533Z,1.80
2024-05-09T17:05:43.008Z,2.10
2024-05-09T17:08:30.865Z,2.40
2024-05-09T17:11:18.518Z,1.97
2024-05-09T17:14:06.159Z,2.20
2024-05-09T17:16:53.802Z,2.07
2024-05-09T17:19:42.460Z,2.27
2024-05-09T17:22:31.677Z,1.90
2024-05-09T17:25:19.519Z,1.70
2024-05-09T17:28:08.401Z,2.10
2024-05-09T17:30:56.359Z,2.00
2024-05-09T17:33:44.199Z,2.13
2024-05-09T17:36:32.304Z,2.40
2024-05-09T17:39:19.950Z,1.93
2024-05-09T17:42:07.603Z,2.20
2024-05-09T17:44:55.229Z,2.43
2024-05-09T17:47:42.954Z,2.10
2024-05-09T17:50:35.310Z,2.43
2024-05-09T17:53:24.896Z,2.20
2024-05-09T17:56:12.570Z,2.13
2024-05-09T17:59:00.175Z,2.07
2024-05-09T18:01:47.861Z,2.10
2024-05-09T18:04:35.768Z,1.80
2024-05-09T18:07:23.582Z,2.00
2024-05-09T18:10:19.295Z,1.90
2024-05-09T18:13:13.616Z,1.80
2024-05-09T18:16:01.432Z,2.20
2024-05-09T18:18:49.247Z,2.00
2024-05-09T18:21:37.089Z,2.37
2024-05-09T18:24:24.740Z,2.47
2024-05-09T18:27:12.505Z,2.30
2024-05-09T18:30:00.194Z,2.37
2024-05-09T18:32:47.920Z,2.20
2024-05-09T18:35:36.580Z,2.27
2024-05-09T18:38:26.850Z,2.03
2024-05-09T18:41:14.657Z,2.13
2024-05-09T18:44:02.296Z,2.10
2024-05-09T18:46:50.055Z,2.30
2024-05-09T18:49:37.834Z,1.70
2024-05-09T18:52:25.557Z,2.20
2024-05-09T18:55:14.153Z,2.20
2024-05-09T18:58:01.967Z,2.00
2024-05-09T19:00:52.058Z,2.20
2024-05-09T19:03:42.119Z,2.40
2024-05-09T19:06:29.883Z,2.23
2024-05-09T19:09:17.567Z,2.27
2024-05-09T19:12:06.548Z,2.20
2024-05-09T19:14:54.196Z,1.80
2024-05-09T19:17:42.093Z,1.90
2024-05-09T19:20:34.440Z,2.10
2024-05-09T19:23:23.906Z,1.80
2024-05-09T19:26:11.520Z,2.17
2024-05-09T19:28:59.135Z,1.93
2024-05-09T19:31:46.788Z,2.00
2024-05-09T19:34:34.488Z,2.00
2024-05-09T19:37:22.157Z,1.77
2024-05-09T19:40:14.874Z,2.40
2024-05-09T19:43:08.888Z,2.43
2024-05-09T19:45:56.810Z,2.30
2024-05-09T19:48:44.647Z,1.93
2024-05-09T19:51:32.464Z,2.20
2024-05-09T19:54:20.618Z,2.00
2024-05-09T19:57:08.347Z,2.07
2024-05-09T19:59:56.004Z,2.40
2024-05-09T20:02:43.814Z,2.17
2024-05-09T20:05:31.595Z,2.10
2024-05-09T20:08:19.236Z,2.10
2024-05-09T20:11:06.898Z,2.23
2024-05-09T20:13:56.947Z,2.40
2024-05-09T20:16:45.392Z,2.10
2024-05-09T20:19:33.171Z,2.43
2024-05-09T20:22:20.970Z,2.30
2024-05-09T20:25:08.834Z,2.20
2024-05-09T20:27:56.749Z,2.03
2024-05-09T20:30:44.575Z,2.20
2024-05-09T20:33:32.355Z,2.23
2024-05-09T20:36:20.021Z,2.43
2024-05-09T20:39:07.627Z,2.20
2024-05-09T20:41:55.251Z,2.63
2024-05-09T20:44:43.003Z,2.20
2024-05-09T20:47:30.711Z,2.40
2024-05-09T20:50:27.900Z,2.10
2024-05-09T20:53:23.439Z,2.30
2024-05-09T20:56:11.021Z,2.20
2024-05-09T20:58:58.920Z,2.20
2024-05-09T21:01:49.211Z,2.10
2024-05-09T21:04:37.378Z,2.40
2024-05-09T21:07:25.165Z,2.20
2024-05-09T21:10:15.942Z,2.63
2024-05-09T21:13:10.027Z,3.23
2024-05-09T21:15:57.804Z,4.03
2024-05-09T21:18:45.674Z,3.67
2024-05-09T21:21:42.226Z,3.10
2024-05-09T21:24:29.870Z,2.73
2024-05-09T21:27:17.660Z,3.20
2024-05-09T21:30:07.850Z,2.97
2024-05-09T21:32:58.031Z,2.10
2024-05-09T21:35:45.737Z,2.33
2024-05-09T21:38:33.377Z,2.00
2024-05-09T21:41:21.509Z,2.57
2024-05-09T21:44:09.135Z,2.57
2024-05-09T21:46:56.799Z,2.60
2024-05-09T21:49:44.456Z,2.43
2024-05-09T21:52:32.454Z,2.37
2024-05-09T21:55:20.086Z,1.70
2024-05-09T21:58:07.985Z,2.30
2024-05-09T22:00:55.758Z,2.63
2024-05-09T22:03:43.551Z,2.90
2024-05-09T22:06:31.664Z,2.20
2024-05-09T22:09:19.818Z,2.33
2024-05-09T22:12:07.595Z,2.47
2024-05-09T22:14:55.322Z,2.47
2024-05-09T22:17:43.132Z,2.63
2024-05-09T22:20:36.853Z,2.50
2024-05-09T22:23:26.783Z,2.70
2024-05-09T22:26:14.430Z,2.37
2024-05-09T22:29:02.016Z,2.43
2024-05-09T22:31:49.633Z,2.80
2024-05-09T22:34:37.288Z,2.67
2024-05-09T22:37:24.966Z,2.40
2024-05-09T22:40:20.476Z,2.37
2024-05-09T22:43:12.362Z,2.60
2024-05-09T22:46:00.372Z,2.50
2024-05-09T22:48:48.140Z,2.37
2024-05-09T22:51:35.881Z,2.40
2024-05-09T22:54:23.578Z,2.30
2024-05-09T22:57:11.217Z,2.50
2024-05-09T22:59:58.838Z,2.47
2024-05-09T23:02:46.539Z,2.43
2024-05-09T23:05:34.286Z,2.50
2024-05-09T23:08:21.967Z,2.67
2024-05-09T23:11:09.879Z,2.70
2024-05-09T23:13:57.641Z,2.63
2024-05-09T23:16:45.306Z,2.67
2024-05-09T23:19:33.543Z,2.80
2024-05-09T23:22:21.288Z,2.40
2024-05-09T23:25:08.969Z,2.30
2024-05-09T23:27:56.731Z,2.53
2024-05-09T23:30:44.508Z,2.43
2024-05-09T23:33:32.311Z,2.70
2024-05-09T23:36:20.039Z,2.90
2024-05-09T23:39:07.672Z,2.87
2024-05-09T23:41:55.367Z,2.83
2024-05-09T23:44:43.638Z,2.53
2024-05-09T23:47:31.318Z,2.53
2024-05-09T23:50:26.331Z,2.23
2024-05-09T23:53:20.353Z,2.83
2024-05-09T23:56:08.280Z,2.80
2024-05-09T23:58:56.028Z,3.00
